createdAt,value
2022-11-21T04:01:46.623Z,3.87
2022-11-21T04:04:13.924Z,3.83
2022-11-21T04:06:41.151Z,3.20
2022-11-21T04:09:08.377Z,5.63
2022-11-21T04:11:35.550Z,3.60
2022-11-21T04:14:02.774Z,4.07
2022-11-21T04:16:29.963Z,4.00
2022-11-21T04:18:57.138Z,3.77
2022-11-21T04:21:24.250Z,4.00
2022-11-21T04:23:51.409Z,3.80
2022-11-21T04:26:18.606Z,3.77
2022-11-21T04:28:45.788Z,3.10
2022-11-21T04:31:13.427Z,4.47
2022-11-21T04:33:40.584Z,4.00
2022-11-21T04:36:08.963Z,3.60
2022-11-21T04:38:36.769Z,3.80
2022-11-21T04:41:04.732Z,3.57
2022-11-21T04:43:31.911Z,4.30
2022-11-21T04:45:59.147Z,4.07
2022-11-21T04:48:26.312Z,3.10
2022-11-21T04:50:53.479Z,3.80
2022-11-21T04:53:20.673Z,3.90
2022-11-21T04:55:47.821Z,4.07
2022-11-21T04:58:14.977Z,3.80
2022-11-21T05:00:42.114Z,4.07
2022-11-21T05:03:09.300Z,4.40
2022-11-21T05:05:36.919Z,3.77
2022-11-21T05:08:04.724Z,3.70
2022-11-21T05:10:51.863Z,3.67
2022-11-21T05:13:22.123Z,4.77
2022-11-21T05:15:51.776Z,4.00
2022-11-21T05:18:19.959Z,4.03
2022-11-21T05:20:47.142Z,4.27
2022-11-21T05:23:14.435Z,3.30
2022-11-21T05:25:41.576Z,4.53
2022-11-21T05:28:09.595Z,5.60
2022-11-21T05:30:37.756Z,4.33
2022-11-21T05:33:05.663Z,4.17
2022-11-21T05:35:32.941Z,4.33
2022-11-21T05:38:00.177Z,3.80
2022-11-21T05:40:27.425Z,3.73
2022-11-21T05:43:13.122Z,4.27
2022-11-21T05:45:40.305Z,4.93
2022-11-21T05:48:07.990Z,4.30
2022-11-21T05:50:36.527Z,4.37
2022-11-21T05:53:06.914Z,4.67
2022-11-21T05:55:34.611Z,4.47
2022-11-21T05:58:01.878Z,3.97
2022-11-21T06:00:29.363Z,4.20
2022-11-21T06:03:15.045Z,3.53
2022-11-21T06:05:42.325Z,5.40
2022-11-21T06:08:09.546Z,4.53
2022-11-21T06:10:36.804Z,5.67
2022-11-21T06:13:21.849Z,4.83
2022-11-21T06:16:00.223Z,3.40
2022-11-21T06:18:28.746Z,4.53
2022-11-21T06:21:04.757Z,5.03
2022-11-21T06:23:32.407Z,5.70
2022-11-21T06:26:01.689Z,6.40
2022-11-21T06:28:38.676Z,5.90
2022-11-21T06:31:07.765Z,5.00
2022-11-21T06:33:35.488Z,5.40
2022-11-21T06:36:10.969Z,4.10
2022-11-21T06:38:38.491Z,5.60
2022-11-21T06:41:12.915Z,4.57
2022-11-21T06:43:40.979Z,5.43
2022-11-21T06:46:08.866Z,4.90
2022-11-21T06:48:37.421Z,4.53
2022-11-21T06:51:13.014Z,4.40
2022-11-21T06:53:40.261Z,4.40
2022-11-21T06:56:07.486Z,4.57
2022-11-21T06:58:34.669Z,4.77
2022-11-21T07:01:07.145Z,4.37
2022-11-21T07:03:35.307Z,3.83
2022-11-21T07:06:03.559Z,4.77
2022-11-21T07:08:32.465Z,4.97
2022-11-21T07:11:24.234Z,4.60
2022-11-21T07:13:51.567Z,4.40
2022-11-21T07:16:18.738Z,5.10
2022-11-21T07:18:45.874Z,3.80
2022-11-21T07:21:13.228Z,3.87
2022-11-21T07:23:40.490Z,4.77
2022-11-21T07:26:08.452Z,3.90
2022-11-21T07:28:35.714Z,4.50
2022-11-21T07:31:11.791Z,3.93
2022-11-21T07:33:40.674Z,6.27
2022-11-21T07:36:08.049Z,4.93
2022-11-21T07:38:35.273Z,5.10
2022-11-21T07:41:02.485Z,4.93
2022-11-21T07:43:29.735Z,5.70
2022-11-21T07:45:57.183Z,4.50
2022-11-21T07:48:24.380Z,4.73
2022-11-21T07:50:51.581Z,4.43
2022-11-21T07:53:18.732Z,5.13
2022-11-21T07:55:45.886Z,4.40
2022-11-21T07:58:15.772Z,4.10
2022-11-21T08:00:43.297Z,4.87
2022-11-21T08:03:14.302Z,3.93
2022-11-21T08:05:43.643Z,4.20
2022-11-21T08:08:12.769Z,3.87
2022-11-21T08:10:42.414Z,4.73
2022-11-21T08:13:09.900Z,3.47
2022-11-21T08:15:37.683Z,4.17
2022-11-21T08:18:15.868Z,4.00
2022-11-21T08:20:43.555Z,5.60
2022-11-21T08:23:11.227Z,5.00
2022-11-21T08:25:40.156Z,4.67
2022-11-21T08:28:09.408Z,4.90
2022-11-21T08:30:37.590Z,5.33
2022-11-21T08:33:05.485Z,4.53
2022-11-21T08:35:32.790Z,5.07
2022-11-21T08:38:01.477Z,4.90
2022-11-21T08:40:31.489Z,5.17
2022-11-21T08:42:59.703Z,5.00
2022-11-21T08:45:26.982Z,5.67
2022-11-21T08:47:54.894Z,6.20
2022-11-21T08:50:23.230Z,4.77
2022-11-21T08:52:50.785Z,4.67
2022-11-21T08:55:18.329Z,4.37
2022-11-21T08:57:45.477Z,5.17
2022-11-21T09:00:13.865Z,4.80
2022-11-21T09:02:41.101Z,4.47
2022-11-21T09:05:09.099Z,3.50
2022-11-21T09:07:36.684Z,4.17
2022-11-21T09:10:04.596Z,4.27
2022-11-21T09:12:31.797Z,4.60
2022-11-21T09:15:17.543Z,4.53
2022-11-21T09:18:03.264Z,4.60
2022-11-21T09:20:32.277Z,4.13
2022-11-21T09:23:04.623Z,4.50
2022-11-21T09:25:32.058Z,3.80
2022-11-21T09:28:01.082Z,4.20
2022-11-21T09:30:28.430Z,4.03
2022-11-21T09:33:06.912Z,4.13
2022-11-21T09:35:34.182Z,3.60
2022-11-21T09:38:01.594Z,4.10
2022-11-21T09:40:33.492Z,3.93
2022-11-21T09:43:10.731Z,4.23
2022-11-21T09:45:45.768Z,4.40
2022-11-21T09:48:17.519Z,3.50
2022-11-21T09:50:53.824Z,3.97
2022-11-21T09:53:37.160Z,6.97
2022-11-21T09:56:14.537Z,5.63
2022-11-21T09:58:41.656Z,5.00
2022-11-21T10:01:16.865Z,4.43
2022-11-21T10:03:47.570Z,3.43
2022-11-21T10:06:25.596Z,3.63
2022-11-21T10:09:06.104Z,4.23
2022-11-21T10:11:36.240Z,3.63
2022-11-21T10:14:15.441Z,10.03
2022-11-21T10:17:10.673Z,4.33
2022-11-21T10:19:56.223Z,4.10
2022-11-21T10:22:54.806Z,4.17
2022-11-21T10:25:28.338Z,3.63
2022-11-21T10:28:02.540Z,3.33
2022-11-21T10:30:29.913Z,3.90
2022-11-21T10:33:01.875Z,3.73
2022-11-21T10:35:48.900Z,3.73
2022-11-21T10:38:29.072Z,3.83
2022-11-21T10:41:15.624Z,3.30
2022-11-21T10:44:23.038Z,3.67
2022-11-21T10:47:00.696Z,3.53
2022-11-21T10:49:32.530Z,3.97
2022-11-21T10:52:19.401Z,3.70
2022-11-21T10:55:09.487Z,4.27
2022-11-21T10:57:45.715Z,4.03
2022-11-21T11:00:12.982Z,3.40
2022-11-21T11:02:42.928Z,4.17
2022-11-21T11:05:27.139Z,3.17
2022-11-21T11:08:01.311Z,3.40
2022-11-21T11:10:29.509Z,3.60
2022-11-21T11:16:04.822Z,3.93
2022-11-21T11:18:35.166Z,3.60
2022-11-21T11:21:17.456Z,3.47
2022-11-21T11:23:46.886Z,2.90
2022-11-21T11:26:24.163Z,3.60
2022-11-21T11:28:51.518Z,4.03
2022-11-21T11:31:18.813Z,3.70
2022-11-21T11:33:49.068Z,3.80
2022-11-21T11:36:36.932Z,4.57
2022-11-21T11:39:22.617Z,3.20
2022-11-21T11:42:33.326Z,4.90
2022-11-21T11:45:40.306Z,4.00
2022-11-21T11:48:10.920Z,4.00
2022-11-21T11:50:49.308Z,4.30
2022-11-21T11:53:30.366Z,3.80
2022-11-21T11:56:07.361Z,3.57
2022-11-21T11:58:59.480Z,4.63
2022-11-21T12:01:41.544Z,4.00
2022-11-21T12:04:16.248Z,3.27
2022-11-21T12:09:56.241Z,4.90
2022-11-21T12:12:32.041Z,4.00
2022-11-21T12:15:38.636Z,4.10
2022-11-21T12:18:20.999Z,3.53
2022-11-21T12:21:03.159Z,3.40
2022-11-21T12:23:48.520Z,3.00
2022-11-21T12:26:36.879Z,4.03
2022-11-21T12:29:28.063Z,3.80
2022-11-21T12:32:19.641Z,3.67
2022-11-21T12:34:55.828Z,3.70
2022-11-21T12:37:37.440Z,3.90
2022-11-21T12:40:25.975Z,3.70
2022-11-21T12:43:30.121Z,3.90
2022-11-21T12:46:20.982Z,3.40
2022-11-21T12:49:19.409Z,3.83
2022-11-21T12:52:24.356Z,4.17
2022-11-21T12:54:57.371Z,4.00
2022-11-21T12:57:47.973Z,4.40
2022-11-21T13:00:20.071Z,4.00
2022-11-21T13:03:02.885Z,3.70
2022-11-21T13:05:37.657Z,4.20
2022-11-21T13:08:12.092Z,4.07
2022-11-21T13:10:51.104Z,4.27
2022-11-21T13:13:33.196Z,4.17
2022-11-21T13:16:10.025Z,4.03
2022-11-21T13:18:44.639Z,4.00
2022-11-21T13:22:03.149Z,3.97
2022-11-21T13:25:24.283Z,3.80
2022-11-21T13:27:52.436Z,5.83
2022-11-21T13:30:22.535Z,5.00
2022-11-21T13:32:54.512Z,4.70
2022-11-21T13:35:21.700Z,4.10
2022-11-21T13:38:03.625Z,4.00
2022-11-21T13:40:30.854Z,3.97
2022-11-21T13:45:59.376Z,3.40
2022-11-21T13:49:02.005Z,5.10
2022-11-21T13:51:52.378Z,4.88
2022-11-21T13:54:55.050Z,3.80
2022-11-21T13:57:29.823Z,3.40
2022-11-21T14:00:14.411Z,4.00
2022-11-21T14:02:45.700Z,3.93
2022-11-21T14:05:36.682Z,3.73
2022-11-21T14:08:24.632Z,4.10
2022-11-21T14:10:53.032Z,3.93
2022-11-21T14:13:32.776Z,4.03
2022-11-21T14:16:17.985Z,3.90
2022-11-21T14:18:47.380Z,4.00
2022-11-21T14:21:26.785Z,4.00
2022-11-21T14:24:04.266Z,3.80
2022-11-21T14:26:39.915Z,3.90
2022-11-21T14:29:38.653Z,3.70
2022-11-21T14:32:06.298Z,4.17
2022-11-21T14:34:33.694Z,3.90
2022-11-21T14:37:04.649Z,3.70
2022-11-21T14:39:38.250Z,3.70
2022-11-21T14:42:17.481Z,4.30
2022-11-21T14:44:44.901Z,2.80
2022-11-21T14:47:23.131Z,3.77
2022-11-21T14:49:55.034Z,3.43
2022-11-21T14:52:29.226Z,4.10
2022-11-21T14:55:30.252Z,4.90
2022-11-21T14:57:46.360Z,8.70
2022-11-21T15:03:20.405Z,11.50
2022-11-21T15:06:07.073Z,11.30
2022-11-21T15:11:31.024Z,7.40
2022-11-21T15:14:15.404Z,7.87
2022-11-21T15:16:47.837Z,7.07
2022-11-21T15:19:32.655Z,7.20
2022-11-21T15:22:02.711Z,8.27
2022-11-21T15:24:37.678Z,7.67
2022-11-21T15:27:24.049Z,7.97
2022-11-21T15:30:10.342Z,10.33
2022-11-21T15:33:10.200Z,16.57
2022-11-21T15:35:40.443Z,10.13
2022-11-21T15:38:41.135Z,8.10
2022-11-21T15:41:08.295Z,7.10
2022-11-21T15:43:45.740Z,8.37
2022-11-21T15:46:18.266Z,8.70
2022-11-21T15:48:50.974Z,9.53
2022-11-21T15:51:44.351Z,8.40
2022-11-21T15:54:16.290Z,8.50
2022-11-21T15:56:43.730Z,12.30
2022-11-21T15:59:11.077Z,6.97
2022-11-21T16:01:38.778Z,7.47
2022-11-21T16:04:08.474Z,9.33
2022-11-21T16:06:35.822Z,10.50
2022-11-21T16:09:03.760Z,11.33
2022-11-21T16:11:37.318Z,10.50
2022-11-21T16:14:06.428Z,9.63
2022-11-21T16:16:42.589Z,9.47
2022-11-21T16:19:12.012Z,9.93
2022-11-21T16:21:39.509Z,12.70
2022-11-21T16:24:07.006Z,11.67
2022-11-21T16:26:34.800Z,11.27
2022-11-21T16:29:05.453Z,9.60
2022-11-21T16:31:33.356Z,10.27
2022-11-21T16:34:00.853Z,10.03
2022-11-21T16:36:29.847Z,10.60
2022-11-21T16:39:01.977Z,11.13
2022-11-21T16:41:32.722Z,10.33
2022-11-21T16:43:59.985Z,11.40
2022-11-21T16:46:27.136Z,11.93
2022-11-21T16:49:03.803Z,13.07
2022-11-21T16:51:31.142Z,12.73
2022-11-21T16:54:01.754Z,12.70
2022-11-21T16:56:32.978Z,12.07
2022-11-21T16:59:00.151Z,11.70
2022-11-21T17:01:28.791Z,11.10
2022-11-21T17:03:56.059Z,10.30
2022-11-21T17:06:27.154Z,10.67
2022-11-21T17:08:54.489Z,10.97
2022-11-21T17:11:30.559Z,11.47
2022-11-21T17:14:01.758Z,10.47
2022-11-21T17:16:29.858Z,11.00
2022-11-21T17:19:00.369Z,11.97
2022-11-21T17:21:28.810Z,12.77
2022-11-21T17:23:56.021Z,12.20
2022-11-21T17:26:25.112Z,11.40
2022-11-21T17:28:53.666Z,11.40
2022-11-21T17:31:20.975Z,11.70
2022-11-21T17:33:51.966Z,12.30
2022-11-21T17:36:21.713Z,13.97
2022-11-21T17:38:49.296Z,15.13
2022-11-21T17:41:18.553Z,15.00
2022-11-21T17:43:47.233Z,15.70
2022-11-21T17:46:19.925Z,13.57
2022-11-21T17:48:54.641Z,14.63
2022-11-21T17:51:33.210Z,13.27
2022-11-21T17:54:01.587Z,10.00
2022-11-21T17:56:31.002Z,8.73
2022-11-21T17:58:58.285Z,9.70
2022-11-21T18:01:25.966Z,17.60
2022-11-21T18:03:58.942Z,14.13
2022-11-21T18:06:28.493Z,14.47
2022-11-21T18:08:59.685Z,14.90
2022-11-21T18:11:37.621Z,12.40
2022-11-21T18:14:07.411Z,12.10
2022-11-21T18:16:34.659Z,12.33
2022-11-21T18:19:02.391Z,12.00
2022-11-21T18:21:31.922Z,11.57
2022-11-21T18:24:02.125Z,12.10
2022-11-21T18:26:32.208Z,12.37
2022-11-21T18:29:34.133Z,15.50
2022-11-21T18:31:49.336Z,17.43
2022-11-21T18:34:16.532Z,19.13
2022-11-21T18:36:43.844Z,14.87
2022-11-21T18:39:14.646Z,14.47
2022-11-21T18:41:42.780Z,14.03
2022-11-21T18:44:10.458Z,13.03
2022-11-21T18:46:38.662Z,10.97
2022-11-21T18:49:07.864Z,9.80
2022-11-21T18:51:36.620Z,9.67
2022-11-21T18:54:11.184Z,8.60
2022-11-21T18:56:39.745Z,8.20
2022-11-21T18:59:07.667Z,10.33
2022-11-21T19:01:36.576Z,9.07
2022-11-21T19:04:04.058Z,8.73
2022-11-21T19:06:32.011Z,8.40
2022-11-21T19:08:59.662Z,8.23
2022-11-21T19:11:29.423Z,7.93
2022-11-21T19:13:57.925Z,8.50
2022-11-21T19:16:27.315Z,8.13
2022-11-21T19:19:26.515Z,7.60
2022-11-21T19:21:42.849Z,8.03
2022-11-21T19:24:14.711Z,9.80
2022-11-21T19:26:43.525Z,10.83
2022-11-21T19:29:11.329Z,11.17
2022-11-21T19:31:44.516Z,11.43
2022-11-21T19:34:15.770Z,9.60
2022-11-21T19:36:43.473Z,9.57
2022-11-21T19:39:11.110Z,10.63
2022-11-21T19:41:38.618Z,11.33
2022-11-21T19:44:05.971Z,9.63
2022-11-21T19:46:36.773Z,10.30
2022-11-21T19:49:05.758Z,10.43
2022-11-21T19:51:35.702Z,10.50
2022-11-21T19:54:07.145Z,10.40
2022-11-21T19:56:35.486Z,9.80
2022-11-21T19:59:02.991Z,9.87
2022-11-21T20:01:31.734Z,10.00
2022-11-21T20:04:01.214Z,9.20
2022-11-21T20:06:30.744Z,7.77
2022-11-21T20:09:10.135Z,8.97
2022-11-21T20:11:40.049Z,7.43
2022-11-21T20:14:07.623Z,7.40
2022-11-21T20:16:42.000Z,7.63
2022-11-21T20:19:14.807Z,7.90
2022-11-21T20:21:42.551Z,7.63
2022-11-21T20:24:11.901Z,9.13
2022-11-21T20:26:39.854Z,7.67
2022-11-21T20:29:07.146Z,8.60
2022-11-21T20:31:37.219Z,7.83
2022-11-21T20:34:07.279Z,8.10
2022-11-21T20:36:36.700Z,8.93
2022-11-21T20:39:12.869Z,8.50
2022-11-21T20:41:41.375Z,8.30
2022-11-21T20:45:11.367Z,9.10
2022-11-21T20:47:01.371Z,8.80
2022-11-21T20:49:28.914Z,9.87
2022-11-21T20:54:43.382Z,9.67
2022-11-21T20:57:14.927Z,10.03
2022-11-21T20:59:43.328Z,11.67
2022-11-21T21:02:14.310Z,9.47
2022-11-21T21:04:42.294Z,10.40
2022-11-21T21:07:09.857Z,9.97
2022-11-21T21:09:37.396Z,10.03
2022-11-21T21:12:05.647Z,10.83
2022-11-21T21:14:32.940Z,9.80
2022-11-21T21:17:00.243Z,10.00
2022-11-21T21:19:27.651Z,9.20
2022-11-21T21:21:56.364Z,8.30
2022-11-21T21:24:23.649Z,6.70
2022-11-21T21:26:51.574Z,7.53
2022-11-21T21:29:20.588Z,7.87
2022-11-21T21:31:51.690Z,8.07
2022-11-21T21:34:20.826Z,7.20
2022-11-21T21:36:48.505Z,6.60
2022-11-21T21:39:15.747Z,6.90
2022-11-21T21:41:47.124Z,7.27
2022-11-21T21:44:15.587Z,6.80
2022-11-21T21:46:42.986Z,7.77
2022-11-21T21:49:10.348Z,8.10
2022-11-21T21:51:37.998Z,7.23
2022-11-21T21:54:06.267Z,7.80
2022-11-21T21:56:34.077Z,8.10
2022-11-21T21:59:01.501Z,8.20
